sensor_id;sensor_type;location;lat;lon;timestamp;pressure;altitude;pressure_sealevel;temperature;humidity
59789;BME280;47353;51.614;5.530;2024-01-30T00:01:10;102503.53;;;7.53;100.00
59789;BME280;47353;51.614;5.530;2024-01-30T00:03:36;102508.78;;;7.61;100.00
59789;BME280;47353;51.614;5.530;2024-01-30T00:06:03;102505.41;;;7.53;100.00
59789;BME280;47353;51.614;5.530;2024-01-30T00:08:28;102503.09;;;7.50;100.00
59789;BME280;47353;51.614;5.530;2024-01-30T00:10:54;102501.00;;;7.45;100.00
59789;BME280;47353;51.614;5.530;2024-01-30T00:13:19;102510.34;;;7.31;100.00
59789;BME280;47353;51.614;5.530;2024-01-30T00:15:45;102509.53;;;7.31;100.00
59789;BME280;47353;51.614;5.530;2024-01-30T00:18:10;102506.78;;;7.24;100.00
59789;BME280;47353;51.614;5.530;2024-01-30T00:20:36;102505.53;;;7.14;100.00
59789;BME280;47353;51.614;5.530;2024-01-30T00:23:01;102511.84;;;7.14;100.00
59789;BME280;47353;51.614;5.530;2024-01-30T00:25:27;102507.25;;;7.02;100.00
59789;BME280;47353;51.614;5.530;2024-01-30T00:27:52;102507.03;;;7.03;100.00
59789;BME280;47353;51.614;5.530;2024-01-30T00:30:17;102494.72;;;6.99;100.00
59789;BME280;47353;51.614;5.530;2024-01-30T00:32:43;102502.16;;;6.99;100.00
59789;BME280;47353;51.614;5.530;2024-01-30T00:35:08;102500.88;;;7.01;100.00
59789;BME280;47353;51.614;5.530;2024-01-30T00:37:35;102501.72;;;6.95;100.00
59789;BME280;47353;51.614;5.530;2024-01-30T00:40:01;102493.88;;;7.05;100.00
59789;BME280;47353;51.614;5.530;2024-01-30T00:42:26;102490.28;;;6.98;100.00
59789;BME280;47353;51.614;5.530;2024-01-30T00:44:51;102493.69;;;6.87;100.00
59789;BME280;47353;51.614;5.530;2024-01-30T00:47:17;102490.28;;;6.92;100.00
59789;BME280;47353;51.614;5.530;2024-01-30T00:49:42;102485.22;;;6.89;100.00
59789;BME280;47353;51.614;5.530;2024-01-30T00:52:08;102489.03;;;6.81;100.00
59789;BME280;47353;51.614;5.530;2024-01-30T00:54:34;102485.63;;;6.79;100.00
59789;BME280;47353;51.614;5.530;2024-01-30T00:56:59;102481.00;;;6.79;100.00
59789;BME280;47353;51.614;5.530;2024-01-30T00:59:24;102483.53;;;6.74;100.00
59789;BME280;47353;51.614;5.530;2024-01-30T01:01:50;102486.28;;;6.74;100.00
59789;BME280;47353;51.614;5.530;2024-01-30T01:04:16;102480.34;;;6.71;100.00
59789;BME280;47353;51.614;5.530;2024-01-30T01:06:42;102475.47;;;6.79;100.00
59789;BME280;47353;51.614;5.530;2024-01-30T01:09:10;102475.47;;;6.79;100.00
59789;BME280;47353;51.614;5.530;2024-01-30T01:11:36;102470.63;;;6.68;100.00
59789;BME280;47353;51.614;5.530;2024-01-30T01:14:03;102468.50;;;6.64;100.00
59789;BME280;47353;51.614;5.530;2024-01-30T01:16:28;102471.44;;;6.82;100.00
59789;BME280;47353;51.614;5.530;2024-01-30T01:18:54;102462.38;;;6.75;100.00
59789;BME280;47353;51.614;5.530;2024-01-30T01:21:19;102467.00;;;6.74;100.00
59789;BME280;47353;51.614;5.530;2024-01-30T01:23:44;102472.50;;;6.68;100.00
59789;BME280;47353;51.614;5.530;2024-01-30T01:26:10;102476.75;;;6.64;100.00
59789;BME280;47353;51.614;5.530;2024-01-30T01:28:35;102473.34;;;6.62;100.00
59789;BME280;47353;51.614;5.530;2024-01-30T01:31:00;102469.34;;;6.58;100.00
59789;BME280;47353;51.614;5.530;2024-01-30T01:33:31;102470.81;;;6.67;100.00
59789;BME280;47353;51.614;5.530;2024-01-30T01:35:58;102467.22;;;6.66;100.00
59789;BME280;47353;51.614;5.530;2024-01-30T01:38:23;102468.06;;;6.67;100.00
59789;BME280;47353;51.614;5.530;2024-01-30T01:40:48;102464.91;;;6.70;100.00
59789;BME280;47353;51.614;5.530;2024-01-30T01:43:14;102460.88;;;6.66;100.00
59789;BME280;47353;51.614;5.530;2024-01-30T01:45:39;102460.44;;;6.75;100.00
59789;BME280;47353;51.614;5.530;2024-01-30T01:48:05;102450.31;;;6.63;100.00
59789;BME280;47353;51.614;5.530;2024-01-30T01:50:31;102446.28;;;6.65;100.00
59789;BME280;47353;51.614;5.530;2024-01-30T01:52:58;102451.97;;;6.83;100.00
59789;BME280;47353;51.614;5.530;2024-01-30T01:55:24;102451.78;;;6.72;100.00
59789;BME280;47353;51.614;5.530;2024-01-30T01:57:53;102450.06;;;6.71;100.00
59789;BME280;47353;51.614;5.530;2024-01-30T02:00:19;102453.91;;;6.70;100.00
59789;BME280;47353;51.614;5.530;2024-01-30T02:02:48;102441.19;;;6.62;100.00
59789;BME280;47353;51.614;5.530;2024-01-30T02:05:15;102452.44;;;6.67;100.00
59789;BME280;47353;51.614;5.530;2024-01-30T02:07:41;102456.66;;;6.70;100.00
59789;BME280;47353;51.614;5.530;2024-01-30T02:10:08;102446.91;;;6.87;100.00
59789;BME280;47353;51.614;5.530;2024-01-30T02:12:35;102449.03;;;6.78;100.00
59789;BME280;47353;51.614;5.530;2024-01-30T02:15:00;102448.19;;;6.71;100.00
59789;BME280;47353;51.614;5.530;2024-01-30T02:17:26;102445.22;;;6.79;100.00
59789;BME280;47353;51.614;5.530;2024-01-30T02:19:51;102440.13;;;6.70;100.00
59789;BME280;47353;51.614;5.530;2024-01-30T02:22:17;102438.22;;;6.83;100.00
59789;BME280;47353;51.614;5.530;2024-01-30T02:24:44;102441.22;;;6.69;100.00
59789;BME280;47353;51.614;5.530;2024-01-30T02:27:09;102442.66;;;6.71;100.00
59789;BME280;47353;51.614;5.530;2024-01-30T02:29:35;102447.13;;;6.66;100.00
59789;BME280;47353;51.614;5.530;2024-01-30T02:32:01;102439.72;;;6.73;100.00
59789;BME280;47353;51.614;5.530;2024-01-30T02:34:26;102437.38;;;6.63;100.00
59789;BME280;47353;51.614;5.530;2024-01-30T02:36:51;102443.75;;;6.70;100.00
59789;BME280;47353;51.614;5.530;2024-01-30T02:39:17;102446.03;;;6.87;100.00
59789;BME280;47353;51.614;5.530;2024-01-30T02:41:42;102441.19;;;6.82;100.00
59789;BME280;47353;51.614;5.530;2024-01-30T02:44:07;102436.13;;;6.66;100.00
59789;BME280;47353;51.614;5.530;2024-01-30T02:46:33;102435.28;;;6.65;100.00
59789;BME280;47353;51.614;5.530;2024-01-30T02:48:58;102437.38;;;6.63;100.00
59789;BME280;47353;51.614;5.530;2024-01-30T02:51:24;102433.81;;;6.63;100.00
59789;BME280;47353;51.614;5.530;2024-01-30T02:53:49;102434.63;;;6.63;100.00
59789;BME280;47353;51.614;5.530;2024-01-30T02:56:14;102438.66;;;6.61;100.00
59789;BME280;47353;51.614;5.530;2024-01-30T02:58:40;102427.44;;;6.62;100.00
59789;BME280;47353;51.614;5.530;2024-01-30T03:01:06;102432.94;;;6.62;100.00
59789;BME280;47353;51.614;5.530;2024-01-30T03:03:32;102426.59;;;6.62;100.00
59789;BME280;47353;51.614;5.530;2024-01-30T03:05:57;102426.59;;;6.62;100.00
59789;BME280;47353;51.614;5.530;2024-01-30T03:08:23;102421.94;;;6.69;100.00
59789;BME280;47353;51.614;5.530;2024-01-30T03:10:48;102419.16;;;6.75;100.00
59789;BME280;47353;51.614;5.530;2024-01-30T03:13:14;102407.97;;;6.64;100.00
59789;BME280;47353;51.614;5.530;2024-01-30T03:15:39;102419.41;;;6.67;100.00
59789;BME280;47353;51.614;5.530;2024-01-30T03:18:05;102406.47;;;6.68;100.00
59789;BME280;47353;51.614;5.530;2024-01-30T03:20:30;102401.00;;;6.61;100.00
59789;BME280;47353;51.614;5.530;2024-01-30T03:22:57;102403.34;;;6.64;100.00
59789;BME280;47353;51.614;5.530;2024-01-30T03:25:22;102388.50;;;6.65;100.00
59789;BME280;47353;51.614;5.530;2024-01-30T03:27:48;102387.25;;;6.61;100.00
59789;BME280;47353;51.614;5.530;2024-01-30T03:30:14;102391.25;;;6.72;100.00
59789;BME280;47353;51.614;5.530;2024-01-30T03:32:39;102382.34;;;6.57;100.00
59789;BME280;47353;51.614;5.530;2024-01-30T03:35:05;102386.59;;;6.53;100.00
59789;BME280;47353;51.614;5.530;2024-01-30T03:37:30;102388.72;;;6.57;100.00
59789;BME280;47353;51.614;5.530;2024-01-30T03:39:56;102392.97;;;6.47;100.00
59789;BME280;47353;51.614;5.530;2024-01-30T03:42:22;102389.56;;;6.45;100.00
59789;BME280;47353;51.614;5.530;2024-01-30T03:44:47;102385.34;;;6.42;100.00
59789;BME280;47353;51.614;5.530;2024-01-30T03:47:13;102392.53;;;6.43;100.00
59789;BME280;47353;51.614;5.530;2024-01-30T03:49:38;102380.69;;;6.62;100.00
59789;BME280;47353;51.614;5.530;2024-01-30T03:52:04;102395.72;;;6.47;100.00
59789;BME280;47353;51.614;5.530;2024-01-30T03:54:29;102383.38;;;6.82;100.00
59789;BME280;47353;51.614;5.530;2024-01-30T03:56:54;102396.09;;;6.83;100.00
59789;BME280;47353;51.614;5.530;2024-01-30T03:59:20;102398.88;;;6.70;100.00
59789;BME280;47353;51.614;5.530;2024-01-30T04:01:50;102398.44;;;6.79;100.00
59789;BME280;47353;51.614;5.530;2024-01-30T04:04:17;102394.53;;;7.07;100.00
59789;BME280;47353;51.614;5.530;2024-01-30T04:06:42;102401.56;;;6.96;100.00
59789;BME280;47353;51.614;5.530;2024-01-30T04:09:08;102407.06;;;7.09;100.00
59789;BME280;47353;51.614;5.530;2024-01-30T04:11:33;102411.72;;;7.02;100.00
59789;BME280;47353;51.614;5.530;2024-01-30T04:13:58;102406.78;;;7.17;100.00
59789;BME280;47353;51.614;5.530;2024-01-30T04:16:24;102408.94;;;7.15;100.00
59789;BME280;47353;51.614;5.530;2024-01-30T04:18:51;102400.69;;;7.02;100.00
59789;BME280;47353;51.614;5.530;2024-01-30T04:21:16;102399.00;;;7.08;100.00
59789;BME280;47353;51.614;5.530;2024-01-30T04:23:42;102403.44;;;7.02;100.00
59789;BME280;47353;51.614;5.530;2024-01-30T04:26:07;102402.78;;;7.13;100.00
59789;BME280;47353;51.614;5.530;2024-01-30T04:28:33;102396.63;;;7.24;100.00
59789;BME280;47353;51.614;5.530;2024-01-30T04:30:58;102391.97;;;7.18;100.00
59789;BME280;47353;51.614;5.530;2024-01-30T04:33:24;102400.03;;;7.13;100.00
59789;BME280;47353;51.614;5.530;2024-01-30T04:35:49;102397.50;;;7.12;100.00
59789;BME280;47353;51.614;5.530;2024-01-30T04:38:15;102393.72;;;7.06;100.00
59789;BME280;47353;51.614;5.530;2024-01-30T04:40:40;102375.91;;;7.15;100.00
59789;BME280;47353;51.614;5.530;2024-01-30T04:43:06;102373.81;;;7.04;100.00
59789;BME280;47353;51.614;5.530;2024-01-30T04:45:31;102366.84;;;7.02;100.00
59789;BME280;47353;51.614;5.530;2024-01-30T04:47:56;102366.78;;;7.15;100.00
59789;BME280;47353;51.614;5.530;2024-01-30T04:50:23;102363.38;;;7.13;100.00
59789;BME280;47353;51.614;5.530;2024-01-30T04:52:48;102362.31;;;7.20;100.00
59789;BME280;47353;51.614;5.530;2024-01-30T04:55:14;102363.38;;;7.13;100.00
59789;BME280;47353;51.614;5.530;2024-01-30T04:57:39;102360.63;;;7.13;100.00
59789;BME280;47353;51.614;5.530;2024-01-30T05:00:06;102369.09;;;7.18;100.00
59789;BME280;47353;51.614;5.530;2024-01-30T05:02:31;102370.16;;;7.17;100.00
59789;BME280;47353;51.614;5.530;2024-01-30T05:04:57;102369.06;;;7.24;100.00
59789;BME280;47353;51.614;5.530;2024-01-30T05:07:24;102377.69;;;7.34;100.00
59789;BME280;47353;51.614;5.530;2024-01-30T05:09:49;102381.16;;;7.23;100.00
59789;BME280;47353;51.614;5.530;2024-01-30T05:12:15;102375.00;;;7.28;100.00
59789;BME280;47353;51.614;5.530;2024-01-30T05:14:40;102373.50;;;7.25;100.00
59789;BME280;47353;51.614;5.530;2024-01-30T05:17:06;102368.88;;;7.19;100.00
59789;BME280;47353;51.614;5.530;2024-01-30T05:19:31;102366.31;;;7.24;100.00
59789;BME280;47353;51.614;5.530;2024-01-30T05:21:57;102369.06;;;7.24;100.00
59789;BME280;47353;51.614;5.530;2024-01-30T05:24:22;102373.53;;;7.19;100.00
59789;BME280;47353;51.614;5.530;2024-01-30T05:26:50;102379.03;;;7.19;100.00
59789;BME280;47353;51.614;5.530;2024-01-30T05:29:16;102375.03;;;7.15;100.00
59789;BME280;47353;51.614;5.530;2024-01-30T05:31:42;102372.50;;;7.13;100.00
59789;BME280;47353;51.614;5.530;2024-01-30T05:34:07;102359.75;;;7.19;100.00
59789;BME280;47353;51.614;5.530;2024-01-30T05:36:34;102364.16;;;7.33;100.00
59789;BME280;47353;51.614;5.530;2024-01-30T05:38:59;102370.38;;;7.22;100.00
59789;BME280;47353;51.614;5.530;2024-01-30T05:41:25;102370.59;;;7.20;100.00
59789;BME280;47353;51.614;5.530;2024-01-30T05:43:50;102365.66;;;7.35;100.00
59789;BME280;47353;51.614;5.530;2024-01-30T05:46:15;102375.44;;;7.25;100.00
59789;BME280;47353;51.614;5.530;2024-01-30T05:48:41;102366.91;;;7.33;100.00
59789;BME280;47353;51.614;5.530;2024-01-30T05:51:09;102371.81;;;7.31;100.00
59789;BME280;47353;51.614;5.530;2024-01-30T05:53:35;102374.13;;;7.34;100.00
59789;BME280;47353;51.614;5.530;2024-01-30T05:56:03;102370.53;;;7.33;100.00
59789;BME280;47353;51.614;5.530;2024-01-30T05:58:29;102373.06;;;7.35;100.00
59789;BME280;47353;51.614;5.530;2024-01-30T06:00:56;102371.75;;;7.37;100.00
59789;BME280;47353;51.614;5.530;2024-01-30T06:03:22;102370.28;;;7.35;100.00
59789;BME280;47353;51.614;5.530;2024-01-30T06:05:48;102368.50;;;7.60;100.00
59789;BME280;47353;51.614;5.530;2024-01-30T06:08:13;102365.06;;;7.64;100.00
59789;BME280;47353;51.614;5.530;2024-01-30T06:10:39;102370.56;;;7.64;100.00
59789;BME280;47353;51.614;5.530;2024-01-30T06:13:04;102365.94;;;7.58;100.00
59789;BME280;47353;51.614;5.530;2024-01-30T06:15:29;102369.66;;;7.77;100.00
59789;BME280;47353;51.614;5.530;2024-01-30T06:17:55;102377.25;;;7.81;100.00
59789;BME280;47353;51.614;5.530;2024-01-30T06:20:21;102368.38;;;7.73;100.00
59789;BME280;47353;51.614;5.530;2024-01-30T06:22:46;102369.09;;;7.93;100.00
59789;BME280;47353;51.614;5.530;2024-01-30T06:25:11;102384.00;;;7.85;100.00
59789;BME280;47353;51.614;5.530;2024-01-30T06:27:37;102385.13;;;7.78;100.00
59789;BME280;47353;51.614;5.530;2024-01-30T06:30:04;102383.53;;;7.95;100.00
59789;BME280;47353;51.614;5.530;2024-01-30T06:32:30;102379.13;;;7.87;100.00
59789;BME280;47353;51.614;5.530;2024-01-30T06:35:00;102381.44;;;7.90;100.00
59789;BME280;47353;51.614;5.530;2024-01-30T06:37:25;102386.28;;;7.95;100.00
59789;BME280;47353;51.614;5.530;2024-01-30T06:39:51;102390.28;;;7.99;100.00
59789;BME280;47353;51.614;5.530;2024-01-30T06:42:17;102389.53;;;8.16;100.00
59789;BME280;47353;51.614;5.530;2024-01-30T06:44:43;102391.53;;;8.03;100.00
59789;BME280;47353;51.614;5.530;2024-01-30T06:47:08;102391.66;;;8.14;100.00
59789;BME280;47353;51.614;5.530;2024-01-30T06:49:33;102394.41;;;8.14;100.00
59789;BME280;47353;51.614;5.530;2024-01-30T06:52:00;102397.63;;;8.11;100.00
59789;BME280;47353;51.614;5.530;2024-01-30T06:54:25;102396.94;;;8.16;100.00
59789;BME280;47353;51.614;5.530;2024-01-30T06:56:50;102390.75;;;8.20;100.00
59789;BME280;47353;51.614;5.530;2024-01-30T06:59:16;102399.03;;;8.20;100.00
59789;BME280;47353;51.614;5.530;2024-01-30T07:01:41;102385.91;;;8.22;100.00
59789;BME280;47353;51.614;5.530;2024-01-30T07:04:06;102407.66;;;8.37;100.00
59789;BME280;47353;51.614;5.530;2024-01-30T07:06:32;102412.72;;;8.40;100.00
59789;BME280;47353;51.614;5.530;2024-01-30T07:08:57;102423.25;;;8.74;100.00
59789;BME280;47353;51.614;5.530;2024-01-30T07:11:23;102421.31;;;8.75;100.00
59789;BME280;47353;51.614;5.530;2024-01-30T07:13:50;102427.06;;;8.73;100.00
59789;BME280;47353;51.614;5.530;2024-01-30T07:16:16;102438.00;;;8.86;100.00
59789;BME280;47353;51.614;5.530;2024-01-30T07:18:41;102426.91;;;9.11;100.00
59789;BME280;47353;51.614;5.530;2024-01-30T07:21:07;102429.88;;;8.91;100.00
59789;BME280;47353;51.614;5.530;2024-01-30T07:23:32;102435.25;;;9.04;100.00
59789;BME280;47353;51.614;5.530;2024-01-30T07:25:59;102439.28;;;9.26;100.00
59789;BME280;47353;51.614;5.530;2024-01-30T07:28:24;102436.06;;;9.11;100.00
59789;BME280;47353;51.614;5.530;2024-01-30T07:30:50;102444.13;;;9.31;100.00
59789;BME280;47353;51.614;5.530;2024-01-30T07:33:15;102445.25;;;9.23;100.00
59789;BME280;47353;51.614;5.530;2024-01-30T07:35:41;102442.72;;;9.40;100.00
59789;BME280;47353;51.614;5.530;2024-01-30T07:38:06;102445.97;;;9.19;100.00
59789;BME280;47353;51.614;5.530;2024-01-30T07:40:32;102449.41;;;9.50;100.00
59789;BME280;47353;51.614;5.530;2024-01-30T07:42:58;102447.03;;;9.36;100.00
59789;BME280;47353;51.614;5.530;2024-01-30T07:45:23;102449.56;;;9.37;100.00
59789;BME280;47353;51.614;5.530;2024-01-30T07:47:51;102446.25;;;9.29;100.00
59789;BME280;47353;51.614;5.530;2024-01-30T07:50:16;102455.41;;;9.29;100.00
59789;BME280;47353;51.614;5.530;2024-01-30T07:52:42;102455.56;;;9.52;100.00
59789;BME280;47353;51.614;5.530;2024-01-30T07:55:08;102451.81;;;9.47;100.00
59789;BME280;47353;51.614;5.530;2024-01-30T07:57:34;102462.53;;;9.55;100.00
59789;BME280;47353;51.614;5.530;2024-01-30T08:00:00;102457.84;;;9.55;100.00
59789;BME280;47353;51.614;5.530;2024-01-30T08:02:25;102465.44;;;9.60;100.00
59789;BME280;47353;51.614;5.530;2024-01-30T08:04:53;102468.75;;;9.50;100.00
59789;BME280;47353;51.614;5.530;2024-01-30T08:07:19;102471.28;;;9.70;100.00
59789;BME280;47353;51.614;5.530;2024-01-30T08:09:46;102478.66;;;9.58;100.00
59789;BME280;47353;51.614;5.530;2024-01-30T08:12:11;102471.22;;;9.58;100.00
59789;BME280;47353;51.614;5.530;2024-01-30T08:14:37;102476.66;;;9.65;100.00
59789;BME280;47353;51.614;5.530;2024-01-30T08:17:03;102470.38;;;9.76;100.00
59789;BME280;47353;51.614;5.530;2024-01-30T08:19:29;102475.13;;;9.69;100.00
59789;BME280;47353;51.614;5.530;2024-01-30T08:21:54;102482.94;;;9.72;100.00
59789;BME280;47353;51.614;5.530;2024-01-30T08:24:20;102480.97;;;9.79;100.00
59789;BME280;47353;51.614;5.530;2024-01-30T08:26:46;102480.72;;;9.62;100.00
59789;BME280;47353;51.614;5.530;2024-01-30T08:29:11;102479.22;;;9.48;100.00
59789;BME280;47353;51.614;5.530;2024-01-30T08:31:37;102480.72;;;9.80;100.00
59789;BME280;47353;51.614;5.530;2024-01-30T08:34:02;102476.59;;;9.71;100.00
59789;BME280;47353;51.614;5.530;2024-01-30T08:36:27;102477.09;;;9.80;100.00
59789;BME280;47353;51.614;5.530;2024-01-30T08:38:53;102477.97;;;9.80;100.00
59789;BME280;47353;51.614;5.530;2024-01-30T08:41:18;102480.53;;;9.93;100.00
59789;BME280;47353;51.614;5.530;2024-01-30T08:43:43;102480.84;;;9.85;100.00
59789;BME280;47353;51.614;5.530;2024-01-30T08:46:10;102473.31;;;10.10;100.00
59789;BME280;47353;51.614;5.530;2024-01-30T08:48:36;102481.78;;;9.97;100.00
59789;BME280;47353;51.614;5.530;2024-01-30T08:51:01;102483.53;;;9.92;100.00
59789;BME280;47353;51.614;5.530;2024-01-30T08:53:27;102474.41;;;10.09;100.00
59789;BME280;47353;51.614;5.530;2024-01-30T08:55:52;102471.66;;;9.91;100.00
59789;BME280;47353;51.614;5.530;2024-01-30T08:58:17;102484.03;;;10.07;100.00
59789;BME280;47353;51.614;5.530;2024-01-30T09:00:44;102472.78;;;10.02;100.00
59789;BME280;47353;51.614;5.530;2024-01-30T09:03:09;102484.91;;;10.01;100.00
59789;BME280;47353;51.614;5.530;2024-01-30T09:05:35;102475.31;;;10.03;100.00
59789;BME280;47353;51.614;5.530;2024-01-30T09:08:00;102485.84;;;10.13;100.00
59789;BME280;47353;51.614;5.530;2024-01-30T09:10:25;102487.22;;;10.22;100.00
59789;BME280;47353;51.614;5.530;2024-01-30T09:12:51;102485.72;;;10.08;100.00
59789;BME280;47353;51.614;5.530;2024-01-30T09:15:17;102479.50;;;10.24;100.00
59789;BME280;47353;51.614;5.530;2024-01-30T09:17:44;102483.34;;;10.23;100.00
59789;BME280;47353;51.614;5.530;2024-01-30T09:20:09;102491.09;;;10.33;100.00
59789;BME280;47353;51.614;5.530;2024-01-30T09:22:35;102490.63;;;10.36;100.00
59789;BME280;47353;51.614;5.530;2024-01-30T09:25:00;102497.75;;;10.43;100.00
59789;BME280;47353;51.614;5.530;2024-01-30T09:27:26;102500.34;;;10.56;100.00
59789;BME280;47353;51.614;5.530;2024-01-30T09:29:51;102501.50;;;10.49;100.00
59789;BME280;47353;51.614;5.530;2024-01-30T09:32:17;102500.25;;;10.74;100.00
59789;BME280;47353;51.614;5.530;2024-01-30T09:34:43;102505.75;;;10.63;100.00
59789;BME280;47353;51.614;5.530;2024-01-30T09:37:08;102508.69;;;10.79;100.00
59789;BME280;47353;51.614;5.530;2024-01-30T09:39:33;102515.66;;;10.70;100.00
59789;BME280;47353;51.614;5.530;2024-01-30T09:44:51;102508.19;;;10.71;100.00
59789;BME280;47353;51.614;5.530;2024-01-30T09:47:18;102516.16;;;10.79;100.00
59789;BME280;47353;51.614;5.530;2024-01-30T09:49:44;102518.34;;;10.88;100.00
59789;BME280;47353;51.614;5.530;2024-01-30T09:52:09;102522.06;;;10.94;100.00
59789;BME280;47353;51.614;5.530;2024-01-30T09:54:36;102520.38;;;10.93;100.00
59789;BME280;47353;51.614;5.530;2024-01-30T09:57:03;102532.09;;;11.06;100.00
59789;BME280;47353;51.614;5.530;2024-01-30T09:59:29;102528.47;;;11.06;100.00
59789;BME280;47353;51.614;5.530;2024-01-30T10:01:54;102516.69;;;11.10;100.00
59789;BME280;47353;51.614;5.530;2024-01-30T10:04:19;102524.38;;;11.20;100.00
59789;BME280;47353;51.614;5.530;2024-01-30T10:06:46;102533.19;;;11.17;100.00
59789;BME280;47353;51.614;5.530;2024-01-30T10:09:11;102527.91;;;11.27;100.00
59789;BME280;47353;51.614;5.530;2024-01-30T10:11:38;102527.53;;;11.12;100.00
59789;BME280;47353;51.614;5.530;2024-01-30T10:14:03;102531.50;;;11.27;100.00
59789;BME280;47353;51.614;5.530;2024-01-30T10:16:29;102531.13;;;11.12;100.00
59789;BME280;47353;51.614;5.530;2024-01-30T10:18:54;102543.44;;;11.16;100.00
59789;BME280;47353;51.614;5.530;2024-01-30T10:21:20;102532.22;;;11.11;100.00
59789;BME280;47353;51.614;5.530;2024-01-30T10:23:46;102532.13;;;11.18;100.00
59789;BME280;47353;51.614;5.530;2024-01-30T10:26:11;102536.44;;;11.14;100.00
59789;BME280;47353;51.614;5.530;2024-01-30T10:28:37;102543.44;;;11.16;100.00
59789;BME280;47353;51.614;5.530;2024-01-30T10:31:02;102549.81;;;11.40;100.00
59789;BME280;47353;51.614;5.530;2024-01-30T10:33:31;102549.84;;;11.28;100.00
59789;BME280;47353;51.614;5.530;2024-01-30T10:36:01;102542.72;;;11.21;100.00
59789;BME280;47353;51.614;5.530;2024-01-30T10:38:32;102548.84;;;11.46;100.00
59789;BME280;47353;51.614;5.530;2024-01-30T10:40:59;102548.84;;;11.23;100.00
59789;BME280;47353;51.614;5.530;2024-01-30T10:43:35;102546.56;;;11.20;100.00
59789;BME280;47353;51.614;5.530;2024-01-30T10:46:18;102543.19;;;11.29;100.00
59789;BME280;47353;51.614;5.530;2024-01-30T10:48:50;102544.75;;;11.37;100.00
59789;BME280;47353;51.614;5.530;2024-01-30T10:51:16;102542.13;;;11.42;100.00
59789;BME280;47353;51.614;5.530;2024-01-30T10:53:44;102550.44;;;11.42;100.00
59789;BME280;47353;51.614;5.530;2024-01-30T10:56:12;102548.03;;;11.45;100.00
59789;BME280;47353;51.614;5.530;2024-01-30T10:58:39;102552.97;;;11.55;100.00
59789;BME280;47353;51.614;5.530;2024-01-30T11:01:05;102548.75;;;11.52;100.00
59789;BME280;47353;51.614;5.530;2024-01-30T11:03:32;102543.47;;;11.62;100.00
59789;BME280;47353;51.614;5.530;2024-01-30T11:06:00;102548.53;;;11.65;100.00
59789;BME280;47353;51.614;5.530;2024-01-30T11:08:26;102561.38;;;11.60;100.00
59789;BME280;47353;51.614;5.530;2024-01-30T11:10:57;102560.13;;;11.62;100.00
59789;BME280;47353;51.614;5.530;2024-01-30T11:13:26;102552.00;;;11.61;100.00
59789;BME280;47353;51.614;5.530;2024-01-30T11:15:52;102555.00;;;11.48;100.00
59789;BME280;47353;51.614;5.530;2024-01-30T11:18:25;102555.50;;;11.56;100.00
59789;BME280;47353;51.614;5.530;2024-01-30T11:20:51;102555.84;;;11.60;100.00
59789;BME280;47353;51.614;5.530;2024-01-30T11:23:16;102561.16;;;11.61;100.00
59789;BME280;47353;51.614;5.530;2024-01-30T11:25:43;102557.91;;;11.53;100.00
59789;BME280;47353;51.614;5.530;2024-01-30T11:28:15;102551.78;;;11.62;100.00
59789;BME280;47353;51.614;5.530;2024-01-30T11:30:42;102562.63;;;11.87;100.00
59789;BME280;47353;51.614;5.530;2024-01-30T11:35:44;102548.56;;;12.05;100.00
59789;BME280;47353;51.614;5.530;2024-01-30T11:38:10;102546.56;;;12.29;100.00
59789;BME280;47353;51.614;5.530;2024-01-30T11:40:38;102543.81;;;12.29;100.00
59789;BME280;47353;51.614;5.530;2024-01-30T11:43:04;102559.25;;;12.53;98.05
59789;BME280;47353;51.614;5.530;2024-01-30T11:45:30;102552.13;;;12.57;97.80
59789;BME280;47353;51.614;5.530;2024-01-30T11:47:57;102545.50;;;13.02;95.10
59789;BME280;47353;51.614;5.530;2024-01-30T11:50:23;102570.44;;;13.47;89.62
59789;BME280;47353;51.614;5.530;2024-01-30T11:52:49;102559.91;;;13.87;83.87
59789;BME280;47353;51.614;5.530;2024-01-30T11:55:15;102564.69;;;13.54;83.34
59789;BME280;47353;51.614;5.530;2024-01-30T11:57:41;102572.75;;;12.89;83.85
59789;BME280;47353;51.614;5.530;2024-01-30T12:00:14;102556.78;;;13.12;83.76
59789;BME280;47353;51.614;5.530;2024-01-30T12:02:40;102571.53;;;13.13;84.96
59789;BME280;47353;51.614;5.530;2024-01-30T12:05:07;102564.16;;;13.73;80.40
59789;BME280;47353;51.614;5.530;2024-01-30T12:07:33;102568.78;;;13.84;79.21
59789;BME280;47353;51.614;5.530;2024-01-30T12:09:58;102572.88;;;13.98;80.09
59789;BME280;47353;51.614;5.530;2024-01-30T12:12:25;102567.28;;;14.63;74.68
59789;BME280;47353;51.614;5.530;2024-01-30T12:14:51;102573.84;;;14.09;75.08
59789;BME280;47353;51.614;5.530;2024-01-30T12:17:27;102575.34;;;15.18;70.35
59789;BME280;47353;51.614;5.530;2024-01-30T12:20:12;102575.31;;;14.59;71.22
59789;BME280;47353;51.614;5.530;2024-01-30T12:22:45;102576.44;;;14.58;71.74
59789;BME280;47353;51.614;5.530;2024-01-30T12:25:15;102591.44;;;14.31;71.71
59789;BME280;47353;51.614;5.530;2024-01-30T12:27:48;102575.31;;;13.57;75.37
59789;BME280;47353;51.614;5.530;2024-01-30T12:30:19;102587.09;;;13.80;73.51
59789;BME280;47353;51.614;5.530;2024-01-30T12:32:46;102599.44;;;14.70;69.46
59789;BME280;47353;51.614;5.530;2024-01-30T12:35:13;102608.47;;;15.09;65.37
59789;BME280;47353;51.614;5.530;2024-01-30T12:37:39;102595.47;;;15.88;61.62
59789;BME280;47353;51.614;5.530;2024-01-30T12:40:08;102610.78;;;16.32;57.86
59789;BME280;47353;51.614;5.530;2024-01-30T12:42:35;102612.09;;;16.66;56.49
59789;BME280;47353;51.614;5.530;2024-01-30T12:45:04;102603.53;;;17.13;55.35
59789;BME280;47353;51.614;5.530;2024-01-30T12:47:30;102590.84;;;15.62;58.72